sensor_id;sensor_type;location;lat;lon;timestamp;P1;durP1;ratioP1;P2;durP2;ratioP2
13660;SDS011;6903;49.480;11.102;2023-08-08T00:02:05;8.20;;;5.13;;
13660;SDS011;6903;49.480;11.102;2023-08-08T00:04:31;6.23;;;4.70;;
13660;SDS011;6903;49.480;11.102;2023-08-08T00:06:56;5.80;;;5.20;;
13660;SDS011;6903;49.480;11.102;2023-08-08T00:09:21;5.33;;;4.57;;
13660;SDS011;6903;49.480;11.102;2023-08-08T00:11:47;5.53;;;4.63;;
13660;SDS011;6903;49.480;11.102;2023-08-08T00:14:13;6.23;;;4.77;;
13660;SDS011;6903;49.480;11.102;2023-08-08T00:16:39;7.30;;;4.73;;
13660;SDS011;6903;49.480;11.102;2023-08-08T00:19:04;5.53;;;4.70;;
13660;SDS011;6903;49.480;11.102;2023-08-08T00:21:29;6.83;;;4.73;;
13660;SDS011;6903;49.480;11.102;2023-08-08T00:23:55;8.03;;;4.90;;
13660;SDS011;6903;49.480;11.102;2023-08-08T00:26:20;4.97;;;4.23;;
13660;SDS011;6903;49.480;11.102;2023-08-08T00:28:45;5.60;;;4.33;;
13660;SDS011;6903;49.480;11.102;2023-08-08T00:31:11;5.57;;;4.63;;
13660;SDS011;6903;49.480;11.102;2023-08-08T00:33:36;7.20;;;4.63;;
13660;SDS011;6903;49.480;11.102;2023-08-08T00:36:01;5.10;;;4.40;;
13660;SDS011;6903;49.480;11.102;2023-08-08T00:38:27;6.70;;;4.87;;
13660;SDS011;6903;49.480;11.102;2023-08-08T00:40:52;4.50;;;4.10;;
13660;SDS011;6903;49.480;11.102;2023-08-08T00:43:17;6.47;;;4.70;;
13660;SDS011;6903;49.480;11.102;2023-08-08T00:45:43;5.77;;;5.00;;
13660;SDS011;6903;49.480;11.102;2023-08-08T00:48:09;4.60;;;4.20;;
13660;SDS011;6903;49.480;11.102;2023-08-08T00:50:35;4.77;;;4.37;;
13660;SDS011;6903;49.480;11.102;2023-08-08T00:53:02;5.13;;;4.63;;
13660;SDS011;6903;49.480;11.102;2023-08-08T00:55:28;5.13;;;4.63;;
13660;SDS011;6903;49.480;11.102;2023-08-08T00:57:54;5.07;;;4.10;;
13660;SDS011;6903;49.480;11.102;2023-08-08T01:00:20;5.60;;;4.77;;
13660;SDS011;6903;49.480;11.102;2023-08-08T01:02:45;5.53;;;4.30;;
13660;SDS011;6903;49.480;11.102;2023-08-08T01:05:10;6.50;;;4.33;;
13660;SDS011;6903;49.480;11.102;2023-08-08T01:10:33;4.80;;;4.00;;
13660;SDS011;6903;49.480;11.102;2023-08-08T01:13:03;4.43;;;3.80;;
13660;SDS011;6903;49.480;11.102;2023-08-08T01:15:31;6.47;;;4.13;;
13660;SDS011;6903;49.480;11.102;2023-08-08T01:18:01;4.57;;;3.80;;
13660;SDS011;6903;49.480;11.102;2023-08-08T01:20:29;4.87;;;3.90;;
13660;SDS011;6903;49.480;11.102;2023-08-08T01:25:55;6.03;;;3.50;;
13660;SDS011;6903;49.480;11.102;2023-08-08T01:28:22;5.20;;;3.90;;
13660;SDS011;6903;49.480;11.102;2023-08-08T01:30:48;5.40;;;3.70;;
13660;SDS011;6903;49.480;11.102;2023-08-08T01:33:13;5.33;;;3.30;;
13660;SDS011;6903;49.480;11.102;2023-08-08T01:35:39;4.93;;;3.43;;
13660;SDS011;6903;49.480;11.102;2023-08-08T01:40:58;4.43;;;3.57;;
13660;SDS011;6903;49.480;11.102;2023-08-08T01:43:25;3.13;;;2.83;;
13660;SDS011;6903;49.480;11.102;2023-08-08T01:45:52;3.40;;;2.63;;
13660;SDS011;6903;49.480;11.102;2023-08-08T01:48:17;3.07;;;2.77;;
13660;SDS011;6903;49.480;11.102;2023-08-08T01:50:43;3.37;;;3.07;;
13660;SDS011;6903;49.480;11.102;2023-08-08T01:53:09;3.60;;;2.77;;
13660;SDS011;6903;49.480;11.102;2023-08-08T01:55:34;3.03;;;2.73;;
13660;SDS011;6903;49.480;11.102;2023-08-08T01:57:59;4.33;;;2.67;;
13660;SDS011;6903;49.480;11.102;2023-08-08T02:00:25;3.47;;;2.67;;
13660;SDS011;6903;49.480;11.102;2023-08-08T02:02:50;3.60;;;3.10;;
13660;SDS011;6903;49.480;11.102;2023-08-08T02:05:16;4.17;;;3.00;;
13660;SDS011;6903;49.480;11.102;2023-08-08T02:07:41;4.60;;;2.67;;
13660;SDS011;6903;49.480;11.102;2023-08-08T02:10:06;4.30;;;2.97;;
13660;SDS011;6903;49.480;11.102;2023-08-08T02:12:32;4.93;;;2.90;;
13660;SDS011;6903;49.480;11.102;2023-08-08T02:14:58;3.30;;;3.00;;
13660;SDS011;6903;49.480;11.102;2023-08-08T02:17:24;4.27;;;2.80;;
13660;SDS011;6903;49.480;11.102;2023-08-08T02:19:49;4.60;;;3.00;;
13660;SDS011;6903;49.480;11.102;2023-08-08T02:22:15;3.03;;;2.73;;
13660;SDS011;6903;49.480;11.102;2023-08-08T02:24:40;4.40;;;3.07;;
13660;SDS011;6903;49.480;11.102;2023-08-08T02:27:05;3.83;;;3.10;;
13660;SDS011;6903;49.480;11.102;2023-08-08T02:29:31;4.40;;;3.30;;
13660;SDS011;6903;49.480;11.102;2023-08-08T02:31:56;5.33;;;3.50;;
13660;SDS011;6903;49.480;11.102;2023-08-08T02:34:21;3.43;;;3.10;;
13660;SDS011;6903;49.480;11.102;2023-08-08T02:36:47;3.47;;;3.17;;
13660;SDS011;6903;49.480;11.102;2023-08-08T02:39:13;4.97;;;3.00;;
13660;SDS011;6903;49.480;11.102;2023-08-08T02:41:38;6.00;;;3.43;;
13660;SDS011;6903;49.480;11.102;2023-08-08T02:44:04;3.37;;;3.03;;
13660;SDS011;6903;49.480;11.102;2023-08-08T02:46:29;4.23;;;3.00;;
13660;SDS011;6903;49.480;11.102;2023-08-08T02:48:54;4.27;;;3.10;;
13660;SDS011;6903;49.480;11.102;2023-08-08T02:51:20;4.10;;;3.70;;
13660;SDS011;6903;49.480;11.102;2023-08-08T02:53:45;4.23;;;3.10;;
13660;SDS011;6903;49.480;11.102;2023-08-08T02:56:10;4.07;;;3.13;;
13660;SDS011;6903;49.480;11.102;2023-08-08T02:58:36;3.87;;;3.20;;
13660;SDS011;6903;49.480;11.102;2023-08-08T03:01:01;4.33;;;3.20;;
13660;SDS011;6903;49.480;11.102;2023-08-08T03:03:26;4.77;;;3.40;;
13660;SDS011;6903;49.480;11.102;2023-08-08T03:05:52;4.20;;;3.80;;
13660;SDS011;6903;49.480;11.102;2023-08-08T03:08:17;3.30;;;2.97;;
13660;SDS011;6903;49.480;11.102;2023-08-08T03:10:42;2.90;;;2.63;;
13660;SDS011;6903;49.480;11.102;2023-08-08T03:13:08;3.17;;;2.87;;
13660;SDS011;6903;49.480;11.102;2023-08-08T03:15:33;2.77;;;2.57;;
13660;SDS011;6903;49.480;11.102;2023-08-08T03:17:58;2.57;;;2.30;;
13660;SDS011;6903;49.480;11.102;2023-08-08T03:20:24;2.70;;;2.50;;
13660;SDS011;6903;49.480;11.102;2023-08-08T03:22:49;3.07;;;2.77;;
13660;SDS011;6903;49.480;11.102;2023-08-08T03:25:14;3.07;;;2.60;;
13660;SDS011;6903;49.480;11.102;2023-08-08T03:27:40;3.87;;;2.60;;
13660;SDS011;6903;49.480;11.102;2023-08-08T03:30:05;4.40;;;2.70;;
13660;SDS011;6903;49.480;11.102;2023-08-08T03:32:31;2.60;;;2.40;;
13660;SDS011;6903;49.480;11.102;2023-08-08T03:34:57;3.50;;;2.70;;
13660;SDS011;6903;49.480;11.102;2023-08-08T03:37:22;3.70;;;2.30;;
13660;SDS011;6903;49.480;11.102;2023-08-08T03:39:47;2.93;;;2.27;;
13660;SDS011;6903;49.480;11.102;2023-08-08T03:42:13;4.13;;;2.50;;
13660;SDS011;6903;49.480;11.102;2023-08-08T03:44:38;2.67;;;2.30;;
13660;SDS011;6903;49.480;11.102;2023-08-08T03:47:03;2.67;;;2.20;;
13660;SDS011;6903;49.480;11.102;2023-08-08T03:49:29;3.00;;;2.70;;
13660;SDS011;6903;49.480;11.102;2023-08-08T03:51:54;5.57;;;2.40;;
13660;SDS011;6903;49.480;11.102;2023-08-08T03:54:19;4.43;;;2.70;;
13660;SDS011;6903;49.480;11.102;2023-08-08T03:56:45;3.13;;;2.80;;
13660;SDS011;6903;49.480;11.102;2023-08-08T03:59:10;3.40;;;3.00;;
13660;SDS011;6903;49.480;11.102;2023-08-08T04:01:35;3.47;;;2.90;;
13660;SDS011;6903;49.480;11.102;2023-08-08T04:04:02;2.87;;;2.63;;
13660;SDS011;6903;49.480;11.102;2023-08-08T04:06:28;3.40;;;3.10;;
13660;SDS011;6903;49.480;11.102;2023-08-08T04:08:53;5.60;;;3.13;;
13660;SDS011;6903;49.480;11.102;2023-08-08T04:11:19;3.50;;;3.00;;
13660;SDS011;6903;49.480;11.102;2023-08-08T04:13:44;4.23;;;2.90;;
13660;SDS011;6903;49.480;11.102;2023-08-08T04:16:09;3.93;;;3.20;;
13660;SDS011;6903;49.480;11.102;2023-08-08T04:18:35;4.60;;;3.63;;
13660;SDS011;6903;49.480;11.102;2023-08-08T04:21:00;5.27;;;3.63;;
13660;SDS011;6903;49.480;11.102;2023-08-08T04:23:25;5.03;;;3.60;;
13660;SDS011;6903;49.480;11.102;2023-08-08T04:25:53;4.60;;;3.47;;
13660;SDS011;6903;49.480;11.102;2023-08-08T04:28:19;3.57;;;3.27;;
13660;SDS011;6903;49.480;11.102;2023-08-08T04:30:44;3.77;;;3.43;;
13660;SDS011;6903;49.480;11.102;2023-08-08T04:33:09;6.10;;;4.47;;
13660;SDS011;6903;49.480;11.102;2023-08-08T04:35:35;7.63;;;4.10;;
13660;SDS011;6903;49.480;11.102;2023-08-08T04:38:00;4.70;;;4.17;;
13660;SDS011;6903;49.480;11.102;2023-08-08T04:40:26;5.20;;;3.97;;
13660;SDS011;6903;49.480;11.102;2023-08-08T04:42:51;4.77;;;4.13;;
13660;SDS011;6903;49.480;11.102;2023-08-08T04:45:17;4.63;;;3.40;;
13660;SDS011;6903;49.480;11.102;2023-08-08T04:47:42;3.50;;;3.20;;
13660;SDS011;6903;49.480;11.102;2023-08-08T04:50:07;2.87;;;2.50;;
13660;SDS011;6903;49.480;11.102;2023-08-08T04:52:33;3.43;;;2.50;;
13660;SDS011;6903;49.480;11.102;2023-08-08T04:54:58;3.33;;;2.23;;
13660;SDS011;6903;49.480;11.102;2023-08-08T04:57:24;2.97;;;2.10;;
13660;SDS011;6903;49.480;11.102;2023-08-08T04:59:49;3.30;;;2.00;;
13660;SDS011;6903;49.480;11.102;2023-08-08T05:02:14;2.70;;;2.00;;
13660;SDS011;6903;49.480;11.102;2023-08-08T05:04:40;3.07;;;2.03;;
13660;SDS011;6903;49.480;11.102;2023-08-08T05:07:05;3.83;;;2.50;;
13660;SDS011;6903;49.480;11.102;2023-08-08T05:09:31;3.43;;;1.90;;
13660;SDS011;6903;49.480;11.102;2023-08-08T05:11:56;2.57;;;1.67;;
13660;SDS011;6903;49.480;11.102;2023-08-08T05:14:22;3.60;;;2.10;;
13660;SDS011;6903;49.480;11.102;2023-08-08T05:16:47;3.60;;;1.95;;
13660;SDS011;6903;49.480;11.102;2023-08-08T05:19:12;2.28;;;2.00;;
13660;SDS011;6903;49.480;11.102;2023-08-08T05:21:38;2.42;;;2.10;;
13660;SDS011;6903;49.480;11.102;2023-08-08T05:24:04;2.22;;;2.03;;
13660;SDS011;6903;49.480;11.102;2023-08-08T05:26:29;3.65;;;2.00;;
13660;SDS011;6903;49.480;11.102;2023-08-08T05:28:54;4.35;;;2.10;;
13660;SDS011;6903;49.480;11.102;2023-08-08T05:31:20;2.83;;;2.00;;
13660;SDS011;6903;49.480;11.102;2023-08-08T05:33:45;4.35;;;2.25;;
13660;SDS011;6903;49.480;11.102;2023-08-08T05:36:10;2.15;;;1.67;;
13660;SDS011;6903;49.480;11.102;2023-08-08T05:38:36;2.22;;;1.70;;
13660;SDS011;6903;49.480;11.102;2023-08-08T05:41:01;4.55;;;2.22;;
13660;SDS011;6903;49.480;11.102;2023-08-08T05:43:27;3.65;;;1.70;;
13660;SDS011;6903;49.480;11.102;2023-08-08T05:45:52;2.63;;;2.03;;
13660;SDS011;6903;49.480;11.102;2023-08-08T05:48:18;3.67;;;1.92;;
13660;SDS011;6903;49.480;11.102;2023-08-08T05:50:43;3.80;;;2.13;;
13660;SDS011;6903;49.480;11.102;2023-08-08T05:53:08;2.03;;;1.60;;
13660;SDS011;6903;49.480;11.102;2023-08-08T05:55:34;3.17;;;1.90;;
13660;SDS011;6903;49.480;11.102;2023-08-08T05:57:59;2.53;;;1.95;;
13660;SDS011;6903;49.480;11.102;2023-08-08T06:00:24;2.58;;;1.90;;
13660;SDS011;6903;49.480;11.102;2023-08-08T06:02:50;2.00;;;1.77;;
13660;SDS011;6903;49.480;11.102;2023-08-08T06:05:16;2.58;;;1.83;;
13660;SDS011;6903;49.480;11.102;2023-08-08T06:07:42;5.03;;;1.60;;
13660;SDS011;6903;49.480;11.102;2023-08-08T06:10:07;2.65;;;1.50;;
13660;SDS011;6903;49.480;11.102;2023-08-08T06:12:33;3.80;;;2.55;;
13660;SDS011;6903;49.480;11.102;2023-08-08T06:14:58;4.13;;;1.88;;
13660;SDS011;6903;49.480;11.102;2023-08-08T06:17:23;3.30;;;1.83;;
13660;SDS011;6903;49.480;11.102;2023-08-08T06:19:49;3.55;;;1.50;;
13660;SDS011;6903;49.480;11.102;2023-08-08T06:22:15;2.35;;;1.50;;
13660;SDS011;6903;49.480;11.102;2023-08-08T06:24:41;2.10;;;1.38;;
13660;SDS011;6903;49.480;11.102;2023-08-08T06:27:06;2.00;;;1.67;;
13660;SDS011;6903;49.480;11.102;2023-08-08T06:29:31;2.38;;;1.70;;
13660;SDS011;6903;49.480;11.102;2023-08-08T06:31:57;2.10;;;1.70;;
13660;SDS011;6903;49.480;11.102;2023-08-08T06:34:22;2.13;;;1.80;;
13660;SDS011;6903;49.480;11.102;2023-08-08T06:36:47;4.38;;;1.77;;
13660;SDS011;6903;49.480;11.102;2023-08-08T06:39:12;3.17;;;1.67;;
13660;SDS011;6903;49.480;11.102;2023-08-08T06:41:38;2.88;;;1.70;;
13660;SDS011;6903;49.480;11.102;2023-08-08T06:44:03;4.68;;;2.05;;
13660;SDS011;6903;49.480;11.102;2023-08-08T06:46:29;2.28;;;1.60;;
13660;SDS011;6903;49.480;11.102;2023-08-08T06:48:55;3.08;;;1.98;;
13660;SDS011;6903;49.480;11.102;2023-08-08T06:51:24;2.50;;;1.60;;
13660;SDS011;6903;49.480;11.102;2023-08-08T06:53:50;2.55;;;1.65;;
13660;SDS011;6903;49.480;11.102;2023-08-08T06:56:15;1.95;;;1.70;;
13660;SDS011;6903;49.480;11.102;2023-08-08T06:58:40;2.20;;;1.70;;
13660;SDS011;6903;49.480;11.102;2023-08-08T07:01:06;2.25;;;1.63;;
13660;SDS011;6903;49.480;11.102;2023-08-08T07:03:31;2.53;;;1.42;;
13660;SDS011;6903;49.480;11.102;2023-08-08T07:05:56;3.50;;;1.80;;
13660;SDS011;6903;49.480;11.102;2023-08-08T07:08:22;2.50;;;1.45;;
13660;SDS011;6903;49.480;11.102;2023-08-08T07:10:47;1.85;;;1.58;;
13660;SDS011;6903;49.480;11.102;2023-08-08T07:13:12;3.30;;;1.58;;
13660;SDS011;6903;49.480;11.102;2023-08-08T07:15:40;1.88;;;1.50;;
13660;SDS011;6903;49.480;11.102;2023-08-08T07:18:05;3.05;;;1.50;;
13660;SDS011;6903;49.480;11.102;2023-08-08T07:20:30;2.40;;;1.75;;
13660;SDS011;6903;49.480;11.102;2023-08-08T07:22:56;2.00;;;1.70;;
13660;SDS011;6903;49.480;11.102;2023-08-08T07:25:21;3.17;;;1.60;;
13660;SDS011;6903;49.480;11.102;2023-08-08T07:27:47;2.35;;;1.50;;
13660;SDS011;6903;49.480;11.102;2023-08-08T07:30:12;2.38;;;1.75;;
13660;SDS011;6903;49.480;11.102;2023-08-08T07:32:38;2.65;;;1.52;;
13660;SDS011;6903;49.480;11.102;2023-08-08T07:35:03;2.40;;;1.60;;
13660;SDS011;6903;49.480;11.102;2023-08-08T07:37:31;2.63;;;1.60;;
13660;SDS011;6903;49.480;11.102;2023-08-08T07:39:57;1.60;;;1.50;;
13660;SDS011;6903;49.480;11.102;2023-08-08T07:42:22;6.50;;;4.63;;
13660;SDS011;6903;49.480;11.102;2023-08-08T07:44:47;2.38;;;1.67;;
13660;SDS011;6903;49.480;11.102;2023-08-08T07:47:13;3.03;;;1.85;;
13660;SDS011;6903;49.480;11.102;2023-08-08T07:49:38;3.05;;;1.52;;
13660;SDS011;6903;49.480;11.102;2023-08-08T07:52:03;2.13;;;1.60;;
13660;SDS011;6903;49.480;11.102;2023-08-08T07:54:29;3.72;;;1.60;;
13660;SDS011;6903;49.480;11.102;2023-08-08T07:56:54;3.08;;;1.52;;
13660;SDS011;6903;49.480;11.102;2023-08-08T07:59:20;1.70;;;1.30;;
13660;SDS011;6903;49.480;11.102;2023-08-08T08:01:45;3.80;;;1.42;;
13660;SDS011;6903;49.480;11.102;2023-08-08T08:04:11;1.67;;;1.48;;
13660;SDS011;6903;49.480;11.102;2023-08-08T08:06:37;2.58;;;1.60;;
13660;SDS011;6903;49.480;11.102;2023-08-08T08:09:02;1.40;;;1.30;;
13660;SDS011;6903;49.480;11.102;2023-08-08T08:11:28;2.08;;;1.52;;
13660;SDS011;6903;49.480;11.102;2023-08-08T08:13:54;2.53;;;1.50;;
13660;SDS011;6903;49.480;11.102;2023-08-08T08:16:19;2.45;;;1.52;;
13660;SDS011;6903;49.480;11.102;2023-08-08T08:18:45;1.55;;;1.40;;
13660;SDS011;6903;49.480;11.102;2023-08-08T08:21:12;1.50;;;1.40;;
13660;SDS011;6903;49.480;11.102;2023-08-08T08:23:38;2.85;;;1.50;;
13660;SDS011;6903;49.480;11.102;2023-08-08T08:26:03;2.05;;;1.30;;
13660;SDS011;6903;49.480;11.102;2023-08-08T08:28:29;2.10;;;1.50;;
13660;SDS011;6903;49.480;11.102;2023-08-08T08:30:54;1.88;;;1.45;;
13660;SDS011;6903;49.480;11.102;2023-08-08T08:33:19;2.22;;;1.45;;
13660;SDS011;6903;49.480;11.102;2023-08-08T08:35:44;2.50;;;1.42;;
13660;SDS011;6903;49.480;11.102;2023-08-08T08:38:10;3.13;;;1.30;;
13660;SDS011;6903;49.480;11.102;2023-08-08T08:40:36;2.75;;;1.20;;
13660;SDS011;6903;49.480;11.102;2023-08-08T08:43:04;1.75;;;1.02;;
13660;SDS011;6903;49.480;11.102;2023-08-08T08:45:29;2.03;;;1.45;;
13660;SDS011;6903;49.480;11.102;2023-08-08T08:47:56;2.90;;;1.15;;
13660;SDS011;6903;49.480;11.102;2023-08-08T08:50:22;1.73;;;1.10;;
13660;SDS011;6903;49.480;11.102;2023-08-08T08:52:51;2.38;;;1.17;;
13660;SDS011;6903;49.480;11.102;2023-08-08T08:55:18;1.90;;;1.10;;
13660;SDS011;6903;49.480;11.102;2023-08-08T08:57:43;3.38;;;1.15;;
13660;SDS011;6903;49.480;11.102;2023-08-08T09:00:09;2.20;;;1.10;;
13660;SDS011;6903;49.480;11.102;2023-08-08T09:02:36;1.40;;;1.10;;
13660;SDS011;6903;49.480;11.102;2023-08-08T09:05:01;2.67;;;1.02;;
13660;SDS011;6903;49.480;11.102;2023-08-08T09:07:28;1.42;;;1.08;;
13660;SDS011;6903;49.480;11.102;2023-08-08T09:09:56;1.92;;;1.20;;
13660;SDS011;6903;49.480;11.102;2023-08-08T09:12:21;1.33;;;1.15;;
13660;SDS011;6903;49.480;11.102;2023-08-08T09:14:48;1.83;;;0.93;;
13660;SDS011;6903;49.480;11.102;2023-08-08T09:17:20;1.83;;;1.23;;
13660;SDS011;6903;49.480;11.102;2023-08-08T09:19:45;1.48;;;1.27;;
13660;SDS011;6903;49.480;11.102;2023-08-08T09:22:12;1.50;;;1.10;;
13660;SDS011;6903;49.480;11.102;2023-08-08T09:24:39;2.17;;;1.27;;
13660;SDS011;6903;49.480;11.102;2023-08-08T09:27:05;2.33;;;1.13;;
13660;SDS011;6903;49.480;11.102;2023-08-08T09:29:32;1.17;;;1.00;;
13660;SDS011;6903;49.480;11.102;2023-08-08T09:31:58;1.73;;;1.13;;
13660;SDS011;6903;49.480;11.102;2023-08-08T09:34:26;1.92;;;1.20;;
13660;SDS011;6903;49.480;11.102;2023-08-08T09:36:53;2.15;;;0.90;;
13660;SDS011;6903;49.480;11.102;2023-08-08T09:39:19;3.00;;;1.23;;
13660;SDS011;6903;49.480;11.102;2023-08-08T09:41:45;1.92;;;1.15;;
13660;SDS011;6903;49.480;11.102;2023-08-08T09:44:11;3.42;;;1.20;;
13660;SDS011;6903;49.480;11.102;2023-08-08T09:46:37;1.25;;;0.90;;
13660;SDS011;6903;49.480;11.102;2023-08-08T09:49:04;2.60;;;1.30;;
13660;SDS011;6903;49.480;11.102;2023-08-08T09:51:30;1.52;;;1.00;;
13660;SDS011;6903;49.480;11.102;2023-08-08T09:53:55;1.40;;;1.13;;
13660;SDS011;6903;49.480;11.102;2023-08-08T09:56:21;1.17;;;1.00;;
13660;SDS011;6903;49.480;11.102;2023-08-08T09:58:49;1.70;;;1.17;;
13660;SDS011;6903;49.480;11.102;2023-08-08T10:01:14;1.98;;;1.63;;
13660;SDS011;6903;49.480;11.102;2023-08-08T10:03:40;2.47;;;1.20;;
13660;SDS011;6903;49.480;11.102;2023-08-08T10:06:08;1.42;;;1.23;;
13660;SDS011;6903;49.480;11.102;2023-08-08T10:08:33;1.40;;;1.00;;
13660;SDS011;6903;49.480;11.102;2023-08-08T10:10:58;2.00;;;1.17;;
13660;SDS011;6903;49.480;11.102;2023-08-08T10:13:25;1.38;;;1.10;;
13660;SDS011;6903;49.480;11.102;2023-08-08T10:15:52;1.70;;;1.10;;
13660;SDS011;6903;49.480;11.102;2023-08-08T10:18:21;2.08;;;1.20;;
13660;SDS011;6903;49.480;11.102;2023-08-08T10:20:47;1.20;;;1.10;;
13660;SDS011;6903;49.480;11.102;2023-08-08T10:23:17;1.45;;;1.17;;
13660;SDS011;6903;49.480;11.102;2023-08-08T10:25:47;3.72;;;1.27;;
13660;SDS011;6903;49.480;11.102;2023-08-08T10:28:15;1.42;;;1.10;;
13660;SDS011;6903;49.480;11.102;2023-08-08T10:30:44;1.08;;;1.00;;
13660;SDS011;6903;49.480;11.102;2023-08-08T10:33:18;1.75;;;1.10;;
13660;SDS011;6903;49.480;11.102;2023-08-08T10:38:38;1.95;;;0.90;;
13660;SDS011;6903;49.480;11.102;2023-08-08T10:41:08;1.85;;;1.23;;
13660;SDS011;6903;49.480;11.102;2023-08-08T10:43:35;1.85;;;1.08;;
13660;SDS011;6903;49.480;11.102;2023-08-08T10:46:01;2.08;;;1.30;;
13660;SDS011;6903;49.480;11.102;2023-08-08T10:48:28;1.60;;;1.20;;
13660;SDS011;6903;49.480;11.102;2023-08-08T10:50:54;1.75;;;1.23;;
13660;SDS011;6903;49.480;11.102;2023-08-08T10:53:30;2.22;;;1.45;;
13660;SDS011;6903;49.480;11.102;2023-08-08T10:55:59;2.15;;;1.30;;
13660;SDS011;6903;49.480;11.102;2023-08-08T10:58:34;2.30;;;1.20;;
13660;SDS011;6903;49.480;11.102;2023-08-08T11:01:04;2.65;;;1.20;;
13660;SDS011;6903;49.480;11.102;2023-08-08T11:03:34;1.75;;;1.30;;
13660;SDS011;6903;49.480;11.102;2023-08-08T11:06:02;1.65;;;1.38;;
13660;SDS011;6903;49.480;11.102;2023-08-08T11:08:29;2.03;;;1.35;;
13660;SDS011;6903;49.480;11.102;2023-08-08T11:10:55;2.63;;;1.33;;
13660;SDS011;6903;49.480;11.102;2023-08-08T11:13:21;2.05;;;1.00;;
13660;SDS011;6903;49.480;11.102;2023-08-08T11:15:46;2.28;;;1.20;;
13660;SDS011;6903;49.480;11.102;2023-08-08T11:18:12;1.20;;;1.10;;
13660;SDS011;6903;49.480;11.102;2023-08-08T11:20:38;1.63;;;1.10;;
13660;SDS011;6903;49.480;11.102;2023-08-08T11:23:04;1.55;;;1.20;;
13660;SDS011;6903;49.480;11.102;2023-08-08T11:25:35;1.98;;;1.10;;
13660;SDS011;6903;49.480;11.102;2023-08-08T11:28:00;1.70;;;1.20;;
13660;SDS011;6903;49.480;11.102;2023-08-08T11:30:30;1.90;;;1.20;;
13660;SDS011;6903;49.480;11.102;2023-08-08T11:32:59;1.98;;;1.40;;
13660;SDS011;6903;49.480;11.102;2023-08-08T11:35:25;2.08;;;1.10;;
13660;SDS011;6903;49.480;11.102;2023-08-08T11:37:52;1.48;;;1.20;;
13660;SDS011;6903;49.480;11.102;2023-08-08T11:40:18;1.27;;;1.00;;
13660;SDS011;6903;49.480;11.102;2023-08-08T11:42:45;1.27;;;1.10;;
13660;SDS011;6903;49.480;11.102;2023-08-08T11:45:11;1.40;;;1.30;;
13660;SDS011;6903;49.480;11.102;2023-08-08T11:47:38;1.45;;;1.20;;
13660;SDS011;6903;49.480;11.102;2023-08-08T11:50:05;1.65;;;1.10;;
13660;SDS011;6903;49.480;11.102;2023-08-08T11:52:31;1.90;;;1.30;;
13660;SDS011;6903;49.480;11.102;2023-08-08T11:55:00;1.92;;;1.10;;
13660;SDS011;6903;49.480;11.102;2023-08-08T11:57:26;1.70;;;1.30;;
13660;SDS011;6903;49.480;11.102;2023-08-08T11:59:55;1.58;;;1.27;;
13660;SDS011;6903;49.480;11.102;2023-08-08T12:02:22;2.20;;;1.50;;
13660;SDS011;6903;49.480;11.102;2023-08-08T12:04:48;1.25;;;1.00;;
13660;SDS011;6903;49.480;11.102;2023-08-08T12:07:14;2.22;;;1.50;;
13660;SDS011;6903;49.480;11.102;2023-08-08T12:09:39;2.35;;;1.33;;
13660;SDS011;6903;49.480;11.102;2023-08-08T12:12:05;1.73;;;1.17;;
13660;SDS011;6903;49.480;11.102;2023-08-08T12:14:36;1.95;;;1.20;;
13660;SDS011;6903;49.480;11.102;2023-08-08T12:17:02;1.65;;;1.33;;
13660;SDS011;6903;49.480;11.102;2023-08-08T12:19:28;3.47;;;2.40;;
13660;SDS011;6903;49.480;11.102;2023-08-08T12:21:53;1.83;;;1.45;;
13660;SDS011;6903;49.480;11.102;2023-08-08T12:24:19;2.15;;;1.38;;
13660;SDS011;6903;49.480;11.102;2023-08-08T12:26:44;1.83;;;1.23;;
13660;SDS011;6903;49.480;11.102;2023-08-08T12:29:10;1.95;;;1.23;;
13660;SDS011;6903;49.480;11.102;2023-08-08T12:31:35;3.30;;;1.13;;
13660;SDS011;6903;49.480;11.102;2023-08-08T12:34:00;2.10;;;1.13;;
13660;SDS011;6903;49.480;11.102;2023-08-08T12:36:26;1.63;;;1.20;;
13660;SDS011;6903;49.480;11.102;2023-08-08T12:38:51;2.20;;;1.20;;
13660;SDS011;6903;49.480;11.102;2023-08-08T12:41:17;1.27;;;1.10;;
13660;SDS011;6903;49.480;11.102;2023-08-08T12:43:42;1.50;;;1.20;;
13660;SDS011;6903;49.480;11.102;2023-08-08T12:46:07;1.30;;;1.00;;
13660;SDS011;6903;49.480;11.102;2023-08-08T12:48:33;1.73;;;1.17;;
13660;SDS011;6903;49.480;11.102;2023-08-08T12:50:58;1.98;;;1.27;;
13660;SDS011;6903;49.480;11.102;2023-08-08T12:53:23;2.92;;;1.42;;
13660;SDS011;6903;49.480;11.102;2023-08-08T12:55:48;1.80;;;1.25;;
13660;SDS011;6903;49.480;11.102;2023-08-08T12:58:14;1.40;;;1.30;;
13660;SDS011;6903;49.480;11.102;2023-08-08T13:00:39;2.22;;;1.40;;
13660;SDS011;6903;49.480;11.102;2023-08-08T13:03:04;2.10;;;1.58;;
13660;SDS011;6903;49.480;11.102;2023-08-08T13:05:30;2.63;;;1.52;;
13660;SDS011;6903;49.480;11.102;2023-08-08T13:07:55;2.88;;;1.52;;
13660;SDS011;6903;49.480;11.102;2023-08-08T13:10:20;2.03;;;1.40;;
13660;SDS011;6903;49.480;11.102;2023-08-08T13:12:46;2.42;;;1.50;;
13660;SDS011;6903;49.480;11.102;2023-08-08T13:15:12;1.70;;;1.33;;
13660;SDS011;6903;49.480;11.102;2023-08-08T13:17:38;2.30;;;1.75;;
13660;SDS011;6903;49.480;11.102;2023-08-08T13:20:03;2.05;;;1.50;;
13660;SDS011;6903;49.480;11.102;2023-08-08T13:22:29;1.38;;;1.20;;
13660;SDS011;6903;49.480;11.102;2023-08-08T13:24:54;1.75;;;1.10;;
13660;SDS011;6903;49.480;11.102;2023-08-08T13:27:20;1.83;;;1.25;;
13660;SDS011;6903;49.480;11.102;2023-08-08T13:29:45;1.52;;;1.40;;
13660;SDS011;6903;49.480;11.102;2023-08-08T13:32:10;2.38;;;1.13;;
13660;SDS011;6903;49.480;11.102;2023-08-08T13:34:36;2.60;;;1.30;;
13660;SDS011;6903;49.480;11.102;2023-08-08T13:37:01;2.70;;;1.30;;
13660;SDS011;6903;49.480;11.102;2023-08-08T13:39:26;1.48;;;1.35;;
13660;SDS011;6903;49.480;11.102;2023-08-08T13:41:52;3.22;;;1.48;;
13660;SDS011;6903;49.480;11.102;2023-08-08T13:44:18;2.70;;;1.50;;
13660;SDS011;6903;49.480;11.102;2023-08-08T13:46:43;2.17;;;1.33;;
13660;SDS011;6903;49.480;11.102;2023-08-08T13:49:08;1.58;;;1.40;;
13660;SDS011;6903;49.480;11.102;2023-08-08T13:51:34;2.45;;;1.42;;
13660;SDS011;6903;49.480;11.102;2023-08-08T13:53:59;3.30;;;1.23;;
13660;SDS011;6903;49.480;11.102;2023-08-08T13:56:24;3.25;;;1.40;;
13660;SDS011;6903;49.480;11.102;2023-08-08T13:58:50;2.50;;;1.25;;
13660;SDS011;6903;49.480;11.102;2023-08-08T14:01:15;1.35;;;1.23;;
13660;SDS011;6903;49.480;11.102;2023-08-08T14:03:40;1.40;;;1.25;;
13660;SDS011;6903;49.480;11.102;2023-08-08T14:06:06;2.63;;;1.40;;
13660;SDS011;6903;49.480;11.102;2023-08-08T14:08:31;2.88;;;1.40;;
13660;SDS011;6903;49.480;11.102;2023-08-08T14:10:57;2.50;;;1.35;;
13660;SDS011;6903;49.480;11.102;2023-08-08T14:13:22;1.80;;;1.30;;
13660;SDS011;6903;49.480;11.102;2023-08-08T14:15:48;2.60;;;1.40;;
13660;SDS011;6903;49.480;11.102;2023-08-08T14:18:13;2.13;;;1.23;;
13660;SDS011;6903;49.480;11.102;2023-08-08T14:20:38;1.75;;;1.13;;
13660;SDS011;6903;49.480;11.102;2023-08-08T14:23:04;2.95;;;1.25;;
13660;SDS011;6903;49.480;11.102;2023-08-08T14:25:29;1.90;;;1.35;;
13660;SDS011;6903;49.480;11.102;2023-08-08T14:27:55;3.53;;;1.60;;
13660;SDS011;6903;49.480;11.102;2023-08-08T14:30:21;2.05;;;1.50;;
13660;SDS011;6903;49.480;11.102;2023-08-08T14:32:47;2.15;;;1.50;;
13660;SDS011;6903;49.480;11.102;2023-08-08T14:35:12;2.65;;;1.30;;
13660;SDS011;6903;49.480;11.102;2023-08-08T14:37:38;2.78;;;1.30;;
13660;SDS011;6903;49.480;11.102;2023-08-08T14:40:03;2.45;;;1.42;;
13660;SDS011;6903;49.480;11.102;2023-08-08T14:42:30;3.05;;;1.48;;
13660;SDS011;6903;49.480;11.102;2023-08-08T14:44:56;1.73;;;1.38;;
13660;SDS011;6903;49.480;11.102;2023-08-08T14:47:21;2.17;;;1.23;;
13660;SDS011;6903;49.480;11.102;2023-08-08T14:49:47;1.38;;;1.10;;
13660;SDS011;6903;49.480;11.102;2023-08-08T14:52:12;2.10;;;1.40;;